Time;durP1;ratioP1;P1;durP2;ratioP2;P2;SDS_P1;SDS_P2;PMS_P1;PMS_P2;Temp;Humidity;BMP_temperature;BMP_pressure;BME280_temperature;BME280_humidity;BME280_pressure;Samples;Min_cycle;Max_cycle;Signal;HPM_P1;HPM_P2
2022/11/21 00:00:23;;;;;;;28.65;5.78;;;;;;;5.70;100.00;100181.72;5039801;28;20516;-79
2022/11/21 00:02:48;;;;;;;21.02;3.55;;;;;;;5.65;100.00;100167.59;5007516;28;20025;-81
2022/11/21 00:05:14;;;;;;;18.27;3.45;;;;;;;5.74;100.00;100174.25;5024379;28;20041;-81
2022/11/21 00:07:39;;;;;;;12.50;2.95;;;;;;;5.77;100.00;100178.56;5024085;28;20029;-81
2022/11/21 00:10:05;;;;;;;13.27;2.95;;;;;;;5.80;100.00;100186.50;5024896;28;20034;-79
2022/11/21 00:12:31;;;;;;;16.67;3.05;;;;;;;5.76;100.00;100176.84;5024178;28;20045;-80
2022/11/21 00:14:56;;;;;;;15.25;3.00;;;;;;;5.76;100.00;100169.56;5023652;28;20219;-80
2022/11/21 00:17:22;;;;;;;15.93;3.25;;;;;;;5.75;100.00;100185.97;5007316;28;20044;-80
2022/11/21 00:19:47;;;;;;;12.27;3.40;;;;;;;5.73;100.00;100177.94;5019624;28;20034;-80
2022/11/21 00:22:13;;;;;;;15.25;3.38;;;;;;;5.71;100.00;100186.19;5029698;28;20029;-81
2022/11/21 00:24:38;;;;;;;13.45;4.13;;;;;;;5.69;100.00;100188.13;5023942;28;20416;-81
2022/11/21 00:27:03;;;;;;;11.82;3.13;;;;;;;5.73;100.00;100187.94;4976014;28;20034;-81
2022/11/21 00:29:29;;;;;;;9.00;3.47;;;;;;;5.69;100.00;100196.28;5039456;28;20098;-81
2022/11/21 00:31:54;;;;;;;21.17;3.67;;;;;;;5.72;100.00;100208.75;5027080;28;20030;-80
2022/11/21 00:34:20;;;;;;;22.42;3.45;;;;;;;5.75;100.00;100213.13;5027045;28;20422;-80
2022/11/21 00:36:45;;;;;;;9.18;3.03;;;;;;;5.76;100.00;100220.31;5026852;28;20060;-80
2022/11/21 00:39:11;;;;;;;8.27;3.03;;;;;;;5.78;100.00;100215.63;5026603;28;20037;-80
2022/11/21 00:41:36;;;;;;;17.02;3.72;;;;;;;5.74;100.00;100192.38;5025717;28;20025;-80
2022/11/21 00:44:02;;;;;;;17.52;3.70;;;;;;;5.80;100.00;100183.78;4977164;28;20044;-81
2022/11/21 00:46:27;;;;;;;16.02;3.88;;;;;;;5.78;100.00;100199.34;4996123;28;20485;-81
2022/11/21 00:48:53;;;;;;;12.05;3.83;;;;;;;5.76;100.00;100201.31;5024638;28;20048;-81
2022/11/21 00:51:18;;;;;;;15.43;4.80;;;;;;;5.73;100.00;100215.09;5026227;28;20037;-81
2022/11/21 00:53:44;;;;;;;15.82;5.30;;;;;;;5.69;100.00;100209.00;5035353;28;20045;-81
2022/11/21 00:56:09;;;;;;;26.00;7.65;;;;;;;5.66;100.00;100207.34;5044146;28;20460;-81
2022/11/21 00:58:35;;;;;;;49.95;16.65;;;;;;;5.53;100.00;100209.19;5044586;28;20485;-82
2022/11/21 01:01:02;;;;;;;60.97;18.35;;;;;;;5.45;100.00;100206.13;5044744;28;20045;-81
2022/11/21 01:03:28;;;;;;;53.53;20.30;;;;;;;5.43;100.00;100211.66;5032747;28;20034;-81
2022/11/21 01:05:59;;;;;;;55.20;20.27;;;;;;;5.38;100.00;100215.66;5045038;28;20097;-81
2022/11/21 01:08:24;;;;;;;64.93;21.75;;;;;;;5.28;100.00;100210.84;5008736;28;20117;-81
2022/11/21 01:10:50;;;;;;;55.72;21.00;;;;;;;5.26;100.00;100206.50;5043331;28;20085;-81
2022/11/21 01:13:15;;;;;;;72.43;22.85;;;;;;;5.12;100.00;100188.44;5021365;28;20061;-82
2022/11/21 01:15:41;;;;;;;66.57;22.13;;;;;;;5.02;100.00;100199.03;5017797;28;20065;-82
2022/11/21 01:18:09;;;;;;;67.55;23.73;;;;;;;4.80;100.00;100172.47;4973320;28;20065;-82
2022/11/21 01:20:40;;;;;;;68.60;22.33;;;;;;;4.97;100.00;100193.06;5025044;28;20124;-82
2022/11/21 01:23:05;;;;;;;65.30;22.45;;;;;;;4.96;100.00;100191.31;5028238;28;20039;-82
2022/11/21 01:25:35;;;;;;;81.85;23.42;;;;;;;4.91;100.00;100198.88;5011885;28;20446;-82
2022/11/21 01:28:00;;;;;;;86.20;24.65;;;;;;;4.81;100.00;100198.63;5012166;28;20033;-82
2022/11/21 01:30:26;;;;;;;79.40;25.27;;;;;;;4.82;100.00;100210.31;5028091;28;20484;-82
2022/11/21 01:32:51;;;;;;;83.70;25.52;;;;;;;4.78;100.00;100220.50;5005648;28;20116;-82
2022/11/21 01:35:17;;;;;;;85.03;24.98;;;;;;;4.83;100.00;100225.63;5029263;28;20034;-82
2022/11/21 01:37:47;;;;;;;93.00;25.48;;;;;;;4.68;100.00;100197.69;5008364;28;20046;-82
2022/11/21 01:40:13;;;;;;;86.60;26.52;;;;;;;4.83;100.00;100229.22;5025145;28;20042;-81
2022/11/21 01:43:02;;;;;;;96.65;26.58;;;;;;;4.79;100.00;100231.25;5008447;28;20034;-82
2022/11/21 01:45:57;;;;;;;92.50;28.30;;;;;;;4.74;100.00;100227.13;4999647;28;20048;-82
2022/11/21 01:48:47;;;;;;;93.15;28.05;;;;;;;4.68;100.00;100222.09;5040222;28;20040;-82
2022/11/21 01:51:48;;;;;;;92.68;28.15;;;;;;;4.64;100.00;100210.56;5045403;28;20038;-82
2022/11/21 01:54:19;;;;;;;104.40;27.92;;;;;;;4.58;100.00;100214.53;5001821;28;20037;-82
2022/11/21 01:56:58;;;;;;;105.28;30.08;;;;;;;4.57;100.00;100222.78;5017798;28;20030;-82
2022/11/21 01:59:32;;;;;;;90.63;27.85;;;;;;;4.57;100.00;100218.22;5025147;28;20409;-82
2022/11/21 02:02:00;;;;;;;105.32;28.13;;;;;;;4.60;100.00;100223.44;5026020;28;20045;-82
2022/11/21 02:04:30;;;;;;;100.90;30.75;;;;;;;4.58;100.00;100217.25;5012232;28;20041;-82
2022/11/21 02:06:57;;;;;;;90.00;29.15;;;;;;;4.60;100.00;100215.31;5046814;28;20041;-81
2022/11/21 02:09:24;;;;;;;97.78;28.10;;;;;;;4.55;100.00;100209.31;5018074;28;20041;-81
2022/11/21 02:12:01;;;;;;;113.97;30.25;;;;;;;4.57;100.00;100204.66;5032576;28;20034;-81
2022/11/21 02:14:27;;;;;;;148.07;32.75;;;;;;;4.48;100.00;100199.84;5030380;28;20054;-81
2022/11/21 02:16:57;;;;;;;90.38;29.40;;;;;;;4.54;100.00;100217.53;5013264;28;20034;-81
2022/11/21 02:19:36;;;;;;;98.20;29.00;;;;;;;4.35;100.00;100210.59;5029730;28;20057;-80
2022/11/21 02:22:11;;;;;;;120.60;28.73;;;;;;;4.37;100.00;100207.78;5005918;28;20081;-82
2022/11/21 02:24:48;;;;;;;124.68;31.95;;;;;;;4.34;100.00;100216.13;5044489;28;20093;-81
2022/11/21 02:27:15;;;;;;;102.82;30.33;;;;;;;4.33;100.00;100222.50;5028357;28;20097;-81
2022/11/21 02:29:42;;;;;;;111.38;29.33;;;;;;;4.34;100.00;100244.06;5027895;28;20033;-80
2022/11/21 02:32:07;;;;;;;112.45;31.73;;;;;;;4.30;100.00;100238.97;5006940;28;20030;-81
2022/11/21 02:34:33;;;;;;;117.32;32.30;;;;;;;4.30;100.00;100226.28;5007158;28;20083;-80
2022/11/21 02:37:00;;;;;;;132.93;33.45;;;;;;;4.33;100.00;100231.50;5022517;28;20115;-80
2022/11/21 02:39:31;;;;;;;127.68;33.60;;;;;;;4.20;100.00;100231.41;5022745;28;20109;-81
2022/11/21 02:42:06;;;;;;;115.18;32.00;;;;;;;4.25;100.00;100236.56;5006983;28;20037;-81
2022/11/21 02:44:42;;;;;;;121.55;31.23;;;;;;;4.27;100.00;100234.59;5005637;28;20362;-79
2022/11/21 02:47:08;;;;;;;101.53;31.38;;;;;;;4.22;100.00;100237.59;5004580;28;20028;-81
2022/11/21 02:50:04;;;;;;;117.00;32.63;;;;;;;4.30;100.00;100247.97;5004902;28;20449;-80
2022/11/21 02:52:30;;;;;;;107.85;31.15;;;;;;;4.31;100.00;100246.13;5016874;28;20097;-81
2022/11/21 02:54:55;;;;;;;125.82;33.35;;;;;;;4.32;100.00;100245.16;5002655;28;20038;-81
2022/11/21 02:57:21;;;;;;;141.68;33.50;;;;;;;4.31;100.00;100240.69;4971089;28;20094;-82
2022/11/21 02:59:46;;;;;;;138.32;33.60;;;;;;;4.29;100.00;100243.50;4971145;28;20466;-82
2022/11/21 03:02:12;;;;;;;119.72;31.50;;;;;;;4.34;100.00;100246.78;4990237;28;20556;-82
2022/11/21 03:04:37;;;;;;;100.68;30.73;;;;;;;4.28;100.00;100247.19;4987325;28;20038;-82
2022/11/21 03:07:02;;;;;;;197.30;36.63;;;;;;;4.23;100.00;100252.91;4992792;28;20482;-81
2022/11/21 03:09:28;;;;;;;140.48;33.88;;;;;;;4.18;100.00;100238.78;5004101;28;20026;-82
2022/11/21 03:11:53;;;;;;;162.38;35.60;;;;;;;4.27;100.00;100244.59;5019779;28;20038;-81
2022/11/21 03:14:19;;;;;;;165.70;35.67;;;;;;;4.28;100.00;100240.88;5003585;28;20050;-81
2022/11/21 03:16:44;;;;;;;157.00;35.30;;;;;;;4.23;100.00;100236.66;5020524;28;20030;-81
2022/11/21 03:19:09;;;;;;;197.20;37.58;;;;;;;4.16;100.00;100237.13;5004095;28;20490;-81
2022/11/21 03:21:35;;;;;;;175.80;38.63;;;;;;;4.14;100.00;100242.63;5031507;28;20041;-81
2022/11/21 03:24:00;;;;;;;235.65;36.92;;;;;;;4.08;100.00;100234.88;5023226;28;20497;-81
2022/11/21 03:26:26;;;;;;;266.70;38.15;;;;;;;4.09;100.00;100231.22;5015573;28;20061;-81
2022/11/21 03:28:51;;;;;;;165.98;35.97;;;;;;;4.14;100.00;100239.06;5003295;28;20034;-82
2022/11/21 03:31:16;;;;;;;170.20;34.88;;;;;;;4.17;100.00;100233.44;4986154;28;20034;-81
2022/11/21 03:33:42;;;;;;;213.57;35.78;;;;;;;3.88;100.00;100211.75;4992759;28;20029;-81
2022/11/21 03:36:07;;;;;;;142.85;33.67;;;;;;;3.99;100.00;100227.34;5023494;28;20040;-81
2022/11/21 03:38:33;;;;;;;169.38;34.75;;;;;;;3.92;100.00;100224.16;5038238;28;20038;-81
2022/11/21 03:41:03;;;;;;;177.00;35.75;;;;;;;3.98;100.00;100226.44;5003451;28;20029;-82
2022/11/21 03:43:29;;;;;;;216.15;37.05;;;;;;;3.95;100.00;100223.06;5036647;28;20030;-81
2022/11/21 03:45:54;;;;;;;220.23;36.13;;;;;;;4.01;100.00;100226.25;5013254;28;20498;-80
2022/11/21 03:48:20;;;;;;;187.43;35.33;;;;;;;4.06;100.00;100217.84;4987542;28;20045;-81
2022/11/21 03:50:45;;;;;;;217.23;37.72;;;;;;;4.06;100.00;100220.56;5004790;28;20125;-81
2022/11/21 03:53:10;;;;;;;227.48;38.10;;;;;;;3.96;100.00;100220.25;5006753;28;20034;-81
2022/11/21 03:55:36;;;;;;;244.00;38.90;;;;;;;4.03;100.00;100216.22;4990176;28;20041;-81
2022/11/21 03:58:01;;;;;;;163.88;36.67;;;;;;;4.05;100.00;100214.28;4989250;28;20416;-81
2022/11/21 04:00:27;;;;;;;207.25;38.92;;;;;;;4.03;100.00;100218.03;5008873;28;20029;-83
2022/11/21 04:02:52;;;;;;;252.30;37.53;;;;;;;4.01;100.00;100220.84;5008659;28;20053;-80
2022/11/21 04:05:18;;;;;;;196.85;38.03;;;;;;;3.89;100.00;100205.38;5024207;28;20030;-82
2022/11/21 04:07:44;;;;;;;164.27;38.05;;;;;;;3.97;100.00;100215.75;5024139;28;20037;-82
2022/11/21 04:10:10;;;;;;;231.40;38.72;;;;;;;3.90;100.00;100212.50;5020247;28;20031;-81
2022/11/21 04:12:35;;;;;;;212.45;37.38;;;;;;;3.93;100.00;100211.47;4986531;28;20104;-81
2022/11/21 04:15:01;;;;;;;172.27;39.00;;;;;;;3.91;100.00;100198.00;4988540;28;20109;-81
2022/11/21 04:17:26;;;;;;;200.07;37.53;;;;;;;3.86;100.00;100211.84;4982085;28;20038;-81
2022/11/21 04:19:51;;;;;;;253.65;39.97;;;;;;;3.85;100.00;100202.00;4963779;28;20129;-81
2022/11/21 04:22:17;;;;;;;232.30;39.17;;;;;;;3.88;100.00;100210.88;4980891;28;20034;-81
2022/11/21 04:24:42;;;;;;;272.05;40.83;;;;;;;3.86;100.00;100201.00;4981101;28;20126;-81
2022/11/21 04:27:08;;;;;;;205.13;37.10;;;;;;;3.86;100.00;100201.00;4971670;28;20097;-81
2022/11/21 04:29:33;;;;;;;193.95;37.13;;;;;;;4.04;100.00;100220.66;5002512;28;20106;-80
2022/11/21 04:31:59;;;;;;;293.60;40.08;;;;;;;4.01;100.00;100214.56;4982188;28;20035;-81
2022/11/21 04:34:24;;;;;;;303.15;39.75;;;;;;;4.15;100.00;100205.56;4994202;28;20053;-81
2022/11/21 04:36:49;;;;;;;312.10;42.80;;;;;;;4.19;100.00;100215.25;5016365;28;20044;-81
2022/11/21 04:39:15;;;;;;;225.93;39.05;;;;;;;4.12;100.00;100208.50;4983404;28;20034;-81
2022/11/21 04:41:40;;;;;;;171.80;37.63;;;;;;;4.20;100.00;100209.75;4983372;28;20023;-81
2022/11/21 04:44:06;;;;;;;327.23;43.00;;;;;;;4.12;100.00;100200.38;5003830;28;20038;-81
2022/11/21 04:46:32;;;;;;;421.15;46.58;;;;;;;4.11;100.00;100204.88;4947769;28;20058;-81
2022/11/21 04:48:57;;;;;;;343.63;44.10;;;;;;;4.05;100.00;100198.03;4996198;28;20031;-81
2022/11/21 04:51:22;;;;;;;544.03;47.85;;;;;;;4.08;100.00;100215.91;4976103;28;20366;-82
2022/11/21 04:53:48;;;;;;;207.38;39.28;;;;;;;4.14;100.00;100220.09;4949507;28;20114;-80
2022/11/21 04:56:15;;;;;;;282.33;41.88;;;;;;;4.10;100.00;100215.81;4970693;28;20111;-81
2022/11/21 04:58:41;;;;;;;276.58;41.35;;;;;;;4.05;100.00;100208.88;4980648;28;20034;-81
2022/11/21 05:01:08;;;;;;;241.32;39.25;;;;;;;4.15;100.00;100209.16;4999216;28;20046;-81
2022/11/21 05:03:34;;;;;;;462.80;43.47;;;;;;;4.20;100.00;100200.75;5015169;28;20038;-81
2022/11/21 05:05:59;;;;;;;244.32;39.13;;;;;;;4.21;100.00;100208.78;4979584;28;20045;-81
2022/11/21 05:08:24;;;;;;;287.73;40.75;;;;;;;4.15;100.00;100198.31;4982132;28;20085;-81
2022/11/21 05:13:34;;;;;;;428.55;43.65;;;;;;;4.08;100.00;100188.81;4999771;28;20058;-82
2022/11/21 05:15:59;;;;;;;365.52;42.28;;;;;;;4.07;100.00;100178.09;4987392;28;20076;-82
2022/11/21 05:18:25;;;;;;;459.17;46.10;;;;;;;4.05;100.00;100178.22;4989335;28;20038;-83
2022/11/21 05:20:50;;;;;;;319.63;42.80;;;;;;;3.97;100.00;100164.28;4989567;28;20038;-84
2022/11/21 05:23:16;;;;;;;373.80;43.92;;;;;;;3.98;100.00;100163.28;5021612;28;20176;-82
2022/11/21 05:25:41;;;;;;;400.40;44.45;;;;;;;3.96;100.00;100163.38;5017724;28;20061;-82
2022/11/21 05:28:06;;;;;;;439.20;45.10;;;;;;;3.98;100.00;100156.03;5016665;28;20412;-83
2022/11/21 05:30:32;;;;;;;264.88;43.35;;;;;;;3.94;100.00;100140.97;5023249;28;20044;-83
2022/11/21 05:32:57;;;;;;;490.27;46.40;;;;;;;3.97;100.00;100157.00;5005235;28;20037;-83
2022/11/21 05:35:23;;;;;;;383.92;44.72;;;;;;;3.91;100.00;100153.81;5023239;28;20036;-82
2022/11/21 05:37:55;;;;;;;240.02;42.58;;;;;;;4.06;100.00;100158.25;5022660;28;20038;-82
2022/11/21 05:40:20;;;;;;;383.30;45.20;;;;;;;3.96;100.00;100160.69;5022637;28;20034;-81
2022/11/21 05:45:30;;;;;;;363.73;46.17;;;;;;;4.09;100.00;100182.44;5024158;28;20030;-84
2022/11/21 05:47:56;;;;;;;339.50;44.60;;;;;;;4.11;100.00;100174.22;5006022;28;20491;-82
2022/11/21 05:50:21;;;;;;;231.13;43.33;;;;;;;4.17;100.00;100168.44;5003930;28;20046;-83
2022/11/21 05:52:46;;;;;;;329.33;45.78;;;;;;;4.12;100.00;100170.56;5023106;28;20042;-82
2022/11/21 05:55:12;;;;;;;282.13;43.50;;;;;;;4.11;100.00;100166.09;5007899;28;20030;-82
2022/11/21 05:57:37;;;;;;;369.70;48.13;;;;;;;4.06;100.00;100166.38;5024347;28;20145;-83
2022/11/21 06:00:03;;;;;;;268.50;43.38;;;;;;;4.08;100.00;100156.31;5022079;28;20509;-82
2022/11/21 06:05:13;;;;;;;426.65;50.25;;;;;;;4.08;100.00;100148.19;5042507;28;20034;-82
2022/11/21 06:07:38;;;;;;;465.50;50.05;;;;;;;4.16;100.00;100151.28;5028711;28;20104;-82
2022/11/21 06:10:04;;;;;;;479.65;52.58;;;;;;;4.12;100.00;100154.31;5005799;28;20041;-82
2022/11/21 06:12:30;;;;;;;257.45;43.00;;;;;;;4.15;100.00;100143.25;5018337;28;20034;-82
2022/11/21 06:14:55;;;;;;;415.42;47.92;;;;;;;4.19;100.00;100155.66;5004641;28;20058;-82
2022/11/21 06:17:21;;;;;;;415.38;47.78;;;;;;;4.20;100.00;100152.84;5006130;28;20091;-82
2022/11/21 06:19:49;;;;;;;243.55;42.80;;;;;;;4.29;100.00;100150.50;4995268;28;20061;-81
2022/11/21 06:22:14;;;;;;;328.45;47.35;;;;;;;4.29;100.00;100154.06;5039869;28;20030;-83
2022/11/21 06:24:40;;;;;;;288.20;44.80;;;;;;;4.34;100.00;100153.78;5009083;28;20037;-82
2022/11/21 06:27:05;;;;;;;322.85;44.85;;;;;;;4.38;100.00;100149.94;5005086;28;20041;-82
2022/11/21 06:29:31;;;;;;;237.10;42.25;;;;;;;4.34;100.00;100153.78;5004975;28;20053;-83
2022/11/21 06:31:56;;;;;;;250.82;43.90;;;;;;;4.35;100.00;100142.00;5021999;28;20042;-83
2022/11/21 06:34:24;;;;;;;222.75;40.40;;;;;;;4.46;100.00;100141.28;4989276;28;20040;-83
2022/11/21 06:36:50;;;;;;;240.40;39.55;;;;;;;4.50;100.00;100142.81;5005134;28;20092;-83
2022/11/21 06:39:15;;;;;;;219.10;36.28;;;;;;;4.42;100.00;100125.22;5004074;28;20046;-83
2022/11/21 06:41:41;;;;;;;195.00;38.00;;;;;;;4.64;100.00;100134.66;5004129;28;20092;-83
2022/11/21 06:44:06;;;;;;;169.55;34.88;;;;;;;4.64;100.00;100123.81;4988668;28;20478;-83
2022/11/21 06:46:31;;;;;;;147.13;33.45;;;;;;;4.69;100.00;100132.50;5004109;28;20068;-83
2022/11/21 06:48:57;;;;;;;155.60;32.38;;;;;;;4.70;100.00;100127.94;5020028;28;20038;-83
2022/11/21 06:51:23;;;;;;;147.23;29.55;;;;;;;4.74;100.00;100116.81;5003515;28;20113;-83
2022/11/21 06:53:55;;;;;;;127.05;28.92;;;;;;;4.73;100.00;100115.06;5017342;28;20522;-83
2022/11/21 06:56:25;;;;;;;120.55;28.92;;;;;;;4.85;100.00;100110.63;5021059;28;20038;-82
2022/11/21 06:58:50;;;;;;;100.88;27.23;;;;;;;4.85;100.00;100116.06;5003424;28;20030;-83
2022/11/21 07:01:16;;;;;;;129.75;29.90;;;;;;;4.87;100.00;100119.56;5027333;28;20109;-83
2022/11/21 07:03:41;;;;;;;84.75;25.85;;;;;;;4.87;100.00;100110.53;4987375;28;20038;-82
2022/11/21 07:06:07;;;;;;;89.45;27.90;;;;;;;4.92;100.00;100116.50;5022248;28;20026;-83
2022/11/21 07:08:36;;;;;;;71.00;24.35;;;;;;;4.91;100.00;100112.94;5020203;28;20037;-82
2022/11/21 07:11:08;;;;;;;90.97;29.58;;;;;;;4.95;100.00;100119.03;5004871;28;20045;-82
2022/11/21 07:13:33;;;;;;;90.15;28.05;;;;;;;4.94;100.00;100112.75;5019542;28;20058;-82
2022/11/21 07:16:08;;;;;;;77.35;27.73;;;;;;;5.00;100.00;100111.47;5011922;28;20078;-82
2022/11/21 07:18:34;;;;;;;78.43;26.98;;;;;;;4.96;100.00;100107.22;4981576;28;20069;-82
2022/11/21 07:21:02;;;;;;;99.70;29.95;;;;;;;4.97;100.00;100112.53;4964955;28;20031;-82
2022/11/21 07:23:28;;;;;;;82.50;26.52;;;;;;;4.97;100.00;100109.81;4994876;28;20026;-82
2022/11/21 07:25:58;;;;;;;80.97;28.52;;;;;;;4.95;100.00;100108.19;5000272;28;20062;-82
2022/11/21 07:28:23;;;;;;;89.63;29.10;;;;;;;4.95;100.00;100100.03;4984010;28;20057;-82
2022/11/21 07:30:48;;;;;;;70.25;25.33;;;;;;;4.94;100.00;100101.88;4985173;28;20125;-82
2022/11/21 07:33:14;;;;;;;83.72;28.40;;;;;;;4.99;100.00;100098.00;4984457;28;20070;-82
2022/11/21 07:35:39;;;;;;;65.90;24.85;;;;;;;4.99;100.00;100089.88;5002193;28;20114;-82
2022/11/21 07:38:05;;;;;;;78.90;26.00;;;;;;;5.01;100.00;100085.19;5007766;28;20042;-82
2022/11/21 07:40:33;;;;;;;84.85;27.00;;;;;;;5.03;100.00;100092.25;5004749;28;20044;-82
2022/11/21 07:43:04;;;;;;;78.47;24.55;;;;;;;5.05;100.00;100097.56;5003649;28;20039;-82
2022/11/21 07:45:29;;;;;;;77.32;25.05;;;;;;;5.05;100.00;100084.88;4989431;28;20096;-83
2022/11/21 07:47:59;;;;;;;69.97;24.10;;;;;;;5.10;100.00;100092.69;4988800;28;20038;-82
2022/11/21 07:50:26;;;;;;;76.47;25.25;;;;;;;5.10;100.00;100087.25;4986820;28;20165;-83
2022/11/21 07:52:59;;;;;;;68.47;23.02;;;;;;;5.13;100.00;100087.06;4984995;28;20169;-82
2022/11/21 07:55:24;;;;;;;;;;;;;;;5.12;100.00;100093.47;5017359;28;20482;-83
2022/11/21 07:58:07;;;;;;;58.83;22.23;;;;;;;5.11;100.00;100094.44;4988579;28;19925;-83
2022/11/21 08:00:34;;;;;;;52.07;20.23;;;;;;;5.14;100.00;100095.09;4999243;28;20034;-82
2022/11/21 08:03:00;;;;;;;54.70;20.25;;;;;;;5.12;100.00;100093.47;4983295;28;20471;-83
2022/11/21 08:05:26;;;;;;;56.67;20.95;;;;;;;5.20;100.00;100098.34;4982849;28;20038;-85
2022/11/21 08:07:51;;;;;;;45.00;18.85;;;;;;;5.15;100.00;100091.41;4985456;28;20054;-82
2022/11/21 08:10:17;;;;;;;53.72;18.95;;;;;;;5.10;100.00;100085.44;4983350;28;20102;-82
2022/11/21 08:12:44;;;;;;;54.20;20.00;;;;;;;5.19;100.00;100092.06;5000384;28;20431;-82
2022/11/21 08:15:10;;;;;;;54.20;18.13;;;;;;;5.20;100.00;100092.94;4999271;28;20406;-82
2022/11/21 08:17:35;;;;;;;48.08;18.42;;;;;;;5.12;100.00;100079.91;4977231;28;20046;-83
2022/11/21 08:20:01;;;;;;;45.28;17.65;;;;;;;5.21;100.00;100087.41;4990333;28;20034;-81
2022/11/21 08:22:27;;;;;;;46.17;17.42;;;;;;;5.15;100.00;100077.00;4992947;28;20030;-82
2022/11/21 08:24:55;;;;;;;47.05;17.98;;;;;;;5.22;100.00;100075.56;4996325;28;20053;-81
2022/11/21 08:27:23;;;;;;;56.30;18.30;;;;;;;5.24;100.00;100065.47;4981829;28;20441;-81
2022/11/21 08:29:49;;;;;;;59.28;18.02;;;;;;;5.33;100.00;100072.97;4979511;28;20057;-82
2022/11/21 08:32:14;;;;;;;51.10;17.40;;;;;;;5.35;100.00;100062.03;4989166;28;20070;-82
2022/11/21 08:34:39;;;;;;;46.42;17.00;;;;;;;5.36;100.00;100050.16;4981482;28;20035;-82
2022/11/21 08:37:05;;;;;;;44.70;16.65;;;;;;;5.39;100.00;100044.53;4981240;28;20030;-82
2022/11/21 08:39:30;;;;;;;43.88;16.45;;;;;;;5.40;100.00;100045.41;4966412;28;20141;-81
2022/11/21 08:42:02;;;;;;;50.47;17.55;;;;;;;5.52;100.00;100042.66;4988063;28;20372;-81
2022/11/21 08:44:32;;;;;;;44.35;16.88;;;;;;;5.56;100.00;100042.47;4996446;28;20034;-82
2022/11/21 08:46:59;;;;;;;42.50;16.08;;;;;;;5.59;100.00;100040.41;4998676;28;20077;-82
2022/11/21 08:49:24;;;;;;;48.20;16.92;;;;;;;5.65;100.00;100029.09;4981781;28;20031;-81
2022/11/21 08:51:51;;;;;;;34.38;15.68;;;;;;;5.72;100.00;100018.66;4980726;28;20030;-81
2022/11/21 08:54:21;;;;;;;41.53;16.30;;;;;;;5.75;100.00;100017.56;5001141;28;20030;-81
2022/11/21 08:56:47;;;;;;;40.10;14.85;;;;;;;5.68;100.00;100015.28;5001940;28;20042;-82
2022/11/21 08:59:14;;;;;;;39.00;16.67;;;;;;;5.74;100.00;100019.44;4981306;28;20030;-82
2022/11/21 09:01:40;;;;;;;41.80;16.30;;;;;;;5.81;100.00;100031.56;4987120;28;20029;-82
2022/11/21 09:04:06;;;;;;;32.08;13.98;;;;;;;5.81;100.00;100025.28;4995103;28;20031;-82
2022/11/21 09:06:32;;;;;;;36.60;15.77;;;;;;;5.81;100.00;100019.84;5001120;28;20030;-82
2022/11/21 09:08:58;;;;;;;37.33;14.00;;;;;;;5.79;100.00;100022.66;4985999;28;20102;-81
2022/11/21 09:11:24;;;;;;;31.58;13.35;;;;;;;5.85;100.00;100015.91;4970431;28;20045;-81
2022/11/21 09:19:19;;;;;;;26.92;11.27;;;;;;;6.04;100.00;100008.19;5024519;28;20099;-81
2022/11/21 09:21:47;;;;;;;22.48;10.27;;;;;;;6.14;100.00;100011.09;5007822;28;20034;-80
2022/11/21 09:24:13;;;;;;;23.65;10.95;;;;;;;6.25;100.00;100005.72;5023611;28;20038;-82
2022/11/21 09:26:38;;;;;;;21.42;9.80;;;;;;;6.36;100.00;100009.47;5005606;28;20175;-82
2022/11/21 09:29:04;;;;;;;27.60;8.80;;;;;;;6.46;100.00;100010.53;5019602;28;20063;-82
2022/11/21 09:31:29;;;;;;;17.98;7.53;;;;;;;6.18;100.00;100009.88;4985281;28;20030;-80
2022/11/21 09:33:55;;;;;;;14.57;8.18;;;;;;;6.52;100.00;100004.59;5023358;28;20051;-81
2022/11/21 09:36:20;;;;;;;17.88;7.78;;;;;;;6.70;100.00;100005.06;5044116;28;20038;-82
2022/11/21 09:38:45;;;;;;;15.25;6.55;;;;;;;6.68;100.00;100001.59;4992755;28;20156;-81
2022/11/21 09:41:53;;;;;;;18.30;6.88;;;;;;;6.73;100.00;100004.81;5008805;28;20396;-81
2022/11/21 09:44:43;;;;;;;27.90;8.05;;;;;;;6.78;100.00;99997.16;5003385;28;20035;-80
2022/11/21 09:47:26;;;;;;;14.55;6.63;;;;;;;7.05;100.00;100006.03;5042680;28;20138;-80
2022/11/21 09:50:15;;;;;;;18.42;7.05;;;;;;;6.93;100.00;100000.53;5041179;28;20033;-81
2022/11/21 09:52:49;;;;;;;18.55;6.05;;;;;;;6.73;100.00;99991.22;5021853;28;20033;-81
2022/11/21 09:55:25;;;;;;;17.98;6.00;;;;;;;6.86;100.00;99990.28;5009805;28;20112;-81
2022/11/21 09:57:50;;;;;;;13.50;5.30;;;;;;;6.81;100.00;99977.88;5024089;28;20037;-81
2022/11/21 10:00:22;;;;;;;18.23;6.30;;;;;;;6.98;100.00;99979.31;5023688;28;20129;-81
2022/11/21 10:02:49;;;;;;;24.42;5.75;;;;;;;6.82;100.00;99981.47;5021303;28;20033;-80
2022/11/21 10:05:15;;;;;;;10.98;6.00;;;;;;;7.02;100.00;99979.03;5054932;28;20093;-80
2022/11/21 10:07:43;;;;;;;22.20;6.47;;;;;;;7.13;100.00;99976.34;5024455;28;20492;-81
2022/11/21 10:10:26;;;;;;;19.33;5.95;;;;;;;7.13;100.00;99979.94;5003562;28;20101;-80
2022/11/21 10:13:09;;;;;;;15.98;6.60;;;;;;;7.21;100.00;99970.31;5021689;28;20030;-81
2022/11/21 10:15:57;;;;;;;19.30;5.57;;;;;;;7.23;100.00;99966.47;5004475;28;20062;-81
2022/11/21 10:18:57;;;;;;;25.55;6.35;;;;;;;7.42;100.00;99954.97;5013206;28;20151;-80
2022/11/21 10:21:22;;;;;;;18.75;5.55;;;;;;;7.52;100.00;99953.22;4998742;28;20036;-81
2022/11/21 10:24:07;;;;;;;20.27;4.97;;;;;;;7.33;100.00;99953.84;5020450;28;20124;-82
2022/11/21 10:26:50;;;;;;;15.27;5.00;;;;;;;7.08;100.00;99954.06;5006258;28;20504;-80
2022/11/21 10:29:22;;;;;;;17.10;4.75;;;;;;;7.12;100.00;99945.53;5012534;28;20036;-82
2022/11/21 10:31:49;;;;;;;21.33;5.47;;;;;;;7.45;100.00;99951.13;5022800;28;20042;-82
2022/11/21 10:34:25;;;;;;;17.48;5.38;;;;;;;7.45;100.00;99942.97;5014389;28;20042;-81
2022/11/21 10:36:59;;;;;;;20.10;4.82;;;;;;;7.46;100.00;99933.78;5019305;28;20033;-81
2022/11/21 10:39:40;;;;;;;13.10;4.78;;;;;;;7.51;100.00;99924.28;5025845;28;20034;-83
2022/11/21 10:42:14;;;;;;;24.50;6.28;;;;;;;7.69;100.00;99929.19;5004048;28;20069;-83
2022/11/21 10:47:31;;;;;;;9.77;4.90;;;;;;;7.39;100.00;99930.69;5039459;28;20045;-83
2022/11/21 10:50:03;;;;;;;;;;;;;;;7.35;100.00;99924.63;5024503;28;20063;-83
2022/11/21 10:52:33;;;;;;;15.02;4.90;;;;;;;7.16;100.00;99917.06;5023718;28;19917;-84
2022/11/21 10:55:05;;;;;;;19.13;4.90;;;;;;;7.08;100.00;99915.97;5042052;28;20500;-83
2022/11/21 10:57:36;;;;;;;23.45;5.50;;;;;;;6.98;100.00;99899.50;5024216;28;20025;-82
2022/11/21 11:00:11;;;;;;;9.38;4.53;;;;;;;7.11;100.00;99910.28;5023077;28;20481;-81
2022/11/21 11:02:37;;;;;;;9.43;4.22;;;;;;;7.14;100.00;99899.16;5024296;28;20060;-85
2022/11/21 11:05:27;;;;;;;9.68;3.85;;;;;;;7.36;100.00;99899.16;5003209;28;20026;-83
2022/11/21 11:08:22;;;;;;;15.68;4.22;;;;;;;7.33;100.00;99896.69;5020556;28;20029;-80
2022/11/21 11:11:03;;;;;;;16.85;4.68;;;;;;;7.38;100.00;99898.13;5003111;28;20045;-79
2022/11/21 11:13:33;;;;;;;21.38;4.18;;;;;;;7.42;100.00;99891.47;5002703;28;20572;-79
2022/11/21 11:16:06;;;;;;;12.32;4.20;;;;;;;7.53;100.00;99881.41;5039029;28;20072;-81
2022/11/21 11:18:34;;;;;;;18.23;4.15;;;;;;;7.59;100.00;99881.91;5024405;28;20033;-82
2022/11/21 11:21:21;;;;;;;21.23;4.20;;;;;;;7.68;100.00;99862.09;5042254;28;20124;-81
2022/11/21 11:23:49;;;;;;;8.85;4.15;;;;;;;7.75;100.00;99865.16;5053994;28;20037;-79
2022/11/21 11:26:29;;;;;;;13.88;4.07;;;;;;;7.90;100.00;99856.56;5012315;28;20033;-80
2022/11/21 11:29:26;;;;;;;8.32;3.28;;;;;;;7.88;100.00;99850.34;5046924;28;20026;-80
2022/11/21 11:31:58;;;;;;;12.88;3.45;;;;;;;8.06;100.00;99844.34;5027754;28;20053;-80